GCHI/VDE METAR and TAF weather

Enter ICAO airport designator
Station Type Date Time Source
GCHI METAR 2019/08/24 09:30 UTC NOAA

GCHI 240930Z 33022KT 9999 FEW020 SCT027 25/20 Q1015


Station Type Date Time Source
GCHI Decoded METAR 2019/08/24 09:30 UTC NOAA

Station name not available
Aug 24, 2019 - 05:30 AM EDT / 2019.08.24 0930 UTC
Wind: from the NNW (330 degrees) at 25 MPH (22 KT):0
Visibility: greater than 7 mile(s):0
Sky conditions: partly cloudy
Temperature: 77 F (25 C)
Dew Point: 68 F (20 C)
Relative Humidity: 73%
Pressure (altimeter): 29.97 in. Hg (1015 hPa)
ob: GCHI 240930Z 33022KT 9999 FEW020 SCT027 25/20 Q1015
cycle: 9

Station Type Date Time Source
GCHI TAF 2019/08/23 09:00 UTC NOAA

TAF GCHI 230800Z 2309/2409 35018KT 9999 FEW025 TX27/2314Z TN22/2405Z PROB30
TEMPO 2309/2403 34018G28KT

Example: see airport list